sensor_id;sensor_type;location;lat;lon;timestamp;P1;durP1;ratioP1;P2;durP2;ratioP2
75739;SDS011;64357;51.344;6.550;2023-07-22T00:00:22;10.10;;;4.30;;
75739;SDS011;64357;51.344;6.550;2023-07-22T00:02:48;8.87;;;3.63;;
75739;SDS011;64357;51.344;6.550;2023-07-22T00:05:13;10.80;;;4.10;;
75739;SDS011;64357;51.344;6.550;2023-07-22T00:07:39;9.73;;;4.45;;
75739;SDS011;64357;51.344;6.550;2023-07-22T00:10:05;10.52;;;4.18;;
75739;SDS011;64357;51.344;6.550;2023-07-22T00:12:33;10.27;;;4.03;;
75739;SDS011;64357;51.344;6.550;2023-07-22T00:14:59;9.80;;;3.72;;
75739;SDS011;64357;51.344;6.550;2023-07-22T00:17:25;8.82;;;4.03;;
75739;SDS011;64357;51.344;6.550;2023-07-22T00:19:53;11.57;;;3.97;;
75739;SDS011;64357;51.344;6.550;2023-07-22T00:22:20;8.77;;;3.95;;
75739;SDS011;64357;51.344;6.550;2023-07-22T00:24:48;8.63;;;4.10;;
75739;SDS011;64357;51.344;6.550;2023-07-22T00:27:16;10.23;;;4.33;;
75739;SDS011;64357;51.344;6.550;2023-07-22T00:29:46;8.70;;;3.40;;
75739;SDS011;64357;51.344;6.550;2023-07-22T00:32:14;10.40;;;4.30;;
75739;SDS011;64357;51.344;6.550;2023-07-22T00:34:41;10.73;;;4.55;;
75739;SDS011;64357;51.344;6.550;2023-07-22T00:37:07;9.73;;;3.53;;
75739;SDS011;64357;51.344;6.550;2023-07-22T00:39:34;11.40;;;4.60;;
75739;SDS011;64357;51.344;6.550;2023-07-22T00:42:00;11.57;;;4.53;;
75739;SDS011;64357;51.344;6.550;2023-07-22T00:44:25;11.53;;;4.17;;
75739;SDS011;64357;51.344;6.550;2023-07-22T00:46:53;8.40;;;4.05;;
75739;SDS011;64357;51.344;6.550;2023-07-22T00:49:20;11.38;;;4.78;;
75739;SDS011;64357;51.344;6.550;2023-07-22T00:51:49;9.65;;;3.85;;
75739;SDS011;64357;51.344;6.550;2023-07-22T00:54:14;11.68;;;4.80;;
75739;SDS011;64357;51.344;6.550;2023-07-22T00:56:40;11.10;;;4.53;;
75739;SDS011;64357;51.344;6.550;2023-07-22T00:59:06;10.82;;;4.57;;
75739;SDS011;64357;51.344;6.550;2023-07-22T01:01:34;11.05;;;4.25;;
75739;SDS011;64357;51.344;6.550;2023-07-22T01:04:01;9.57;;;4.35;;
75739;SDS011;64357;51.344;6.550;2023-07-22T01:06:29;11.00;;;4.47;;
75739;SDS011;64357;51.344;6.550;2023-07-22T01:08:56;10.90;;;4.47;;
75739;SDS011;64357;51.344;6.550;2023-07-22T01:11:23;10.07;;;4.28;;
75739;SDS011;64357;51.344;6.550;2023-07-22T01:13:49;8.48;;;3.97;;
75739;SDS011;64357;51.344;6.550;2023-07-22T01:16:17;10.27;;;4.28;;
75739;SDS011;64357;51.344;6.550;2023-07-22T01:18:43;9.67;;;4.47;;
75739;SDS011;64357;51.344;6.550;2023-07-22T01:21:10;8.88;;;3.90;;
75739;SDS011;64357;51.344;6.550;2023-07-22T01:23:37;9.20;;;4.18;;
75739;SDS011;64357;51.344;6.550;2023-07-22T01:26:06;10.93;;;3.95;;
75739;SDS011;64357;51.344;6.550;2023-07-22T01:28:36;9.73;;;4.38;;
75739;SDS011;64357;51.344;6.550;2023-07-22T01:31:02;10.82;;;3.95;;
75739;SDS011;64357;51.344;6.550;2023-07-22T01:33:27;10.80;;;3.70;;
75739;SDS011;64357;51.344;6.550;2023-07-22T01:35:55;11.03;;;4.43;;
75739;SDS011;64357;51.344;6.550;2023-07-22T01:38:20;10.32;;;4.18;;
75739;SDS011;64357;51.344;6.550;2023-07-22T01:40:46;11.60;;;4.45;;
75739;SDS011;64357;51.344;6.550;2023-07-22T01:43:11;11.43;;;3.97;;
75739;SDS011;64357;51.344;6.550;2023-07-22T01:45:41;12.45;;;4.78;;
75739;SDS011;64357;51.344;6.550;2023-07-22T01:48:07;9.70;;;4.20;;
75739;SDS011;64357;51.344;6.550;2023-07-22T01:50:35;8.73;;;3.85;;
75739;SDS011;64357;51.344;6.550;2023-07-22T01:53:01;10.30;;;4.43;;
75739;SDS011;64357;51.344;6.550;2023-07-22T01:55:26;10.00;;;4.10;;
75739;SDS011;64357;51.344;6.550;2023-07-22T01:57:52;8.77;;;3.58;;
75739;SDS011;64357;51.344;6.550;2023-07-22T02:00:18;11.20;;;4.43;;
75739;SDS011;64357;51.344;6.550;2023-07-22T02:02:46;11.52;;;4.13;;
75739;SDS011;64357;51.344;6.550;2023-07-22T02:05:11;9.85;;;3.92;;
75739;SDS011;64357;51.344;6.550;2023-07-22T02:07:37;11.20;;;4.00;;
75739;SDS011;64357;51.344;6.550;2023-07-22T02:10:02;11.63;;;4.50;;
75739;SDS011;64357;51.344;6.550;2023-07-22T02:12:31;11.88;;;4.40;;
75739;SDS011;64357;51.344;6.550;2023-07-22T02:14:59;10.68;;;4.78;;
75739;SDS011;64357;51.344;6.550;2023-07-22T02:17:27;11.57;;;4.25;;
75739;SDS011;64357;51.344;6.550;2023-07-22T02:19:55;11.30;;;4.40;;
75739;SDS011;64357;51.344;6.550;2023-07-22T02:22:23;9.68;;;3.88;;
75739;SDS011;64357;51.344;6.550;2023-07-22T02:24:53;11.20;;;3.80;;
75739;SDS011;64357;51.344;6.550;2023-07-22T02:27:23;11.75;;;4.70;;
75739;SDS011;64357;51.344;6.550;2023-07-22T02:29:49;12.13;;;5.00;;
75739;SDS011;64357;51.344;6.550;2023-07-22T02:32:14;8.63;;;3.77;;
75739;SDS011;64357;51.344;6.550;2023-07-22T02:34:39;9.20;;;3.77;;
75739;SDS011;64357;51.344;6.550;2023-07-22T02:37:05;10.65;;;4.40;;
75739;SDS011;64357;51.344;6.550;2023-07-22T02:39:33;10.50;;;4.55;;
75739;SDS011;64357;51.344;6.550;2023-07-22T02:41:58;10.20;;;3.90;;
75739;SDS011;64357;51.344;6.550;2023-07-22T02:44:24;10.90;;;4.03;;
75739;SDS011;64357;51.344;6.550;2023-07-22T02:46:49;9.83;;;4.27;;
75739;SDS011;64357;51.344;6.550;2023-07-22T02:49:14;10.10;;;4.10;;
75739;SDS011;64357;51.344;6.550;2023-07-22T02:52:01;10.37;;;3.63;;
75739;SDS011;64357;51.344;6.550;2023-07-22T02:54:31;9.32;;;3.58;;
75739;SDS011;64357;51.344;6.550;2023-07-22T02:57:02;8.57;;;3.60;;
75739;SDS011;64357;51.344;6.550;2023-07-22T02:59:31;9.35;;;3.78;;
75739;SDS011;64357;51.344;6.550;2023-07-22T03:01:58;9.20;;;3.78;;
75739;SDS011;64357;51.344;6.550;2023-07-22T03:04:23;8.55;;;3.53;;
75739;SDS011;64357;51.344;6.550;2023-07-22T03:06:48;10.10;;;3.83;;
75739;SDS011;64357;51.344;6.550;2023-07-22T03:09:14;9.23;;;3.87;;
75739;SDS011;64357;51.344;6.550;2023-07-22T03:11:39;8.68;;;3.40;;
75739;SDS011;64357;51.344;6.550;2023-07-22T03:14:04;9.33;;;3.73;;
75739;SDS011;64357;51.344;6.550;2023-07-22T03:16:33;8.67;;;3.30;;
75739;SDS011;64357;51.344;6.550;2023-07-22T03:21:30;6.78;;;2.95;;
75739;SDS011;64357;51.344;6.550;2023-07-22T03:23:58;9.65;;;3.40;;
75739;SDS011;64357;51.344;6.550;2023-07-22T03:26:24;8.77;;;3.33;;
75739;SDS011;64357;51.344;6.550;2023-07-22T03:28:49;9.30;;;3.63;;
75739;SDS011;64357;51.344;6.550;2023-07-22T03:31:15;12.23;;;3.90;;
75739;SDS011;64357;51.344;6.550;2023-07-22T03:33:40;8.57;;;3.60;;
75739;SDS011;64357;51.344;6.550;2023-07-22T03:36:13;8.85;;;3.20;;
75739;SDS011;64357;51.344;6.550;2023-07-22T03:38:38;9.80;;;3.80;;
75739;SDS011;64357;51.344;6.550;2023-07-22T03:41:03;9.10;;;3.60;;
75739;SDS011;64357;51.344;6.550;2023-07-22T03:43:32;11.38;;;4.07;;
75739;SDS011;64357;51.344;6.550;2023-07-22T03:45:57;9.67;;;3.87;;
75739;SDS011;64357;51.344;6.550;2023-07-22T03:48:22;8.77;;;3.50;;
75739;SDS011;64357;51.344;6.550;2023-07-22T03:50:48;11.17;;;3.53;;
75739;SDS011;64357;51.344;6.550;2023-07-22T03:53:13;7.93;;;3.47;;
75739;SDS011;64357;51.344;6.550;2023-07-22T03:55:38;9.03;;;3.40;;
75739;SDS011;64357;51.344;6.550;2023-07-22T03:58:04;9.90;;;3.97;;
75739;SDS011;64357;51.344;6.550;2023-07-22T04:00:29;10.37;;;3.80;;
75739;SDS011;64357;51.344;6.550;2023-07-22T04:02:57;9.82;;;3.45;;
75739;SDS011;64357;51.344;6.550;2023-07-22T04:05:22;10.73;;;3.27;;
75739;SDS011;64357;51.344;6.550;2023-07-22T04:07:47;8.30;;;3.03;;
75739;SDS011;64357;51.344;6.550;2023-07-22T04:10:15;9.70;;;3.17;;
75739;SDS011;64357;51.344;6.550;2023-07-22T04:12:40;8.18;;;3.15;;
75739;SDS011;64357;51.344;6.550;2023-07-22T04:15:08;8.82;;;3.55;;
75739;SDS011;64357;51.344;6.550;2023-07-22T04:17:34;9.27;;;3.88;;
75739;SDS011;64357;51.344;6.550;2023-07-22T04:19:59;7.93;;;3.60;;
75739;SDS011;64357;51.344;6.550;2023-07-22T04:22:25;9.50;;;3.70;;
75739;SDS011;64357;51.344;6.550;2023-07-22T04:24:50;8.40;;;3.30;;
75739;SDS011;64357;51.344;6.550;2023-07-22T04:27:15;8.88;;;3.65;;
75739;SDS011;64357;51.344;6.550;2023-07-22T04:29:45;10.65;;;3.40;;
75739;SDS011;64357;51.344;6.550;2023-07-22T04:32:11;7.83;;;3.23;;
75739;SDS011;64357;51.344;6.550;2023-07-22T04:34:36;8.88;;;3.55;;
75739;SDS011;64357;51.344;6.550;2023-07-22T04:37:02;9.13;;;3.20;;
75739;SDS011;64357;51.344;6.550;2023-07-22T04:39:28;10.40;;;3.95;;
75739;SDS011;64357;51.344;6.550;2023-07-22T04:41:56;13.45;;;3.70;;
75739;SDS011;64357;51.344;6.550;2023-07-22T04:44:21;9.57;;;3.10;;
75739;SDS011;64357;51.344;6.550;2023-07-22T04:46:47;10.13;;;3.30;;
75739;SDS011;64357;51.344;6.550;2023-07-22T04:49:12;8.32;;;3.40;;
75739;SDS011;64357;51.344;6.550;2023-07-22T04:51:38;8.77;;;3.50;;
75739;SDS011;64357;51.344;6.550;2023-07-22T04:54:03;8.95;;;3.67;;
75739;SDS011;64357;51.344;6.550;2023-07-22T04:56:28;10.90;;;3.70;;
75739;SDS011;64357;51.344;6.550;2023-07-22T04:58:54;9.27;;;3.70;;
75739;SDS011;64357;51.344;6.550;2023-07-22T05:01:22;8.33;;;2.90;;
75739;SDS011;64357;51.344;6.550;2023-07-22T05:03:47;9.38;;;3.22;;
75739;SDS011;64357;51.344;6.550;2023-07-22T05:06:13;8.98;;;3.15;;
75739;SDS011;64357;51.344;6.550;2023-07-22T05:08:40;7.53;;;3.75;;
75739;SDS011;64357;51.344;6.550;2023-07-22T05:11:06;9.17;;;3.07;;
75739;SDS011;64357;51.344;6.550;2023-07-22T05:13:32;10.40;;;3.63;;
75739;SDS011;64357;51.344;6.550;2023-07-22T05:15:59;8.52;;;3.75;;
75739;SDS011;64357;51.344;6.550;2023-07-22T05:18:27;9.77;;;3.20;;
75739;SDS011;64357;51.344;6.550;2023-07-22T05:20:52;10.45;;;3.80;;
75739;SDS011;64357;51.344;6.550;2023-07-22T05:23:20;8.95;;;3.30;;
75739;SDS011;64357;51.344;6.550;2023-07-22T05:25:54;9.95;;;3.85;;
75739;SDS011;64357;51.344;6.550;2023-07-22T05:28:20;10.70;;;3.78;;
75739;SDS011;64357;51.344;6.550;2023-07-22T05:30:45;9.98;;;3.15;;
75739;SDS011;64357;51.344;6.550;2023-07-22T05:33:10;10.18;;;3.40;;
75739;SDS011;64357;51.344;6.550;2023-07-22T05:35:36;10.40;;;3.65;;
75739;SDS011;64357;51.344;6.550;2023-07-22T05:38:01;9.90;;;3.45;;
75739;SDS011;64357;51.344;6.550;2023-07-22T05:40:31;8.90;;;3.25;;
75739;SDS011;64357;51.344;6.550;2023-07-22T05:42:57;9.63;;;3.90;;
75739;SDS011;64357;51.344;6.550;2023-07-22T05:45:22;10.02;;;3.47;;
75739;SDS011;64357;51.344;6.550;2023-07-22T05:47:50;9.23;;;3.92;;
75739;SDS011;64357;51.344;6.550;2023-07-22T05:50:20;9.20;;;3.42;;
75739;SDS011;64357;51.344;6.550;2023-07-22T05:52:45;10.50;;;3.72;;
75739;SDS011;64357;51.344;6.550;2023-07-22T05:55:11;9.35;;;3.38;;
75739;SDS011;64357;51.344;6.550;2023-07-22T05:57:39;9.23;;;3.55;;
75739;SDS011;64357;51.344;6.550;2023-07-22T06:00:04;8.93;;;3.38;;
75739;SDS011;64357;51.344;6.550;2023-07-22T06:02:30;9.35;;;4.15;;
75739;SDS011;64357;51.344;6.550;2023-07-22T06:04:58;10.65;;;3.72;;
75739;SDS011;64357;51.344;6.550;2023-07-22T06:07:23;9.95;;;3.67;;
75739;SDS011;64357;51.344;6.550;2023-07-22T06:09:51;11.90;;;4.38;;
75739;SDS011;64357;51.344;6.550;2023-07-22T06:12:19;9.97;;;4.00;;
75739;SDS011;64357;51.344;6.550;2023-07-22T06:14:44;9.95;;;3.90;;
75739;SDS011;64357;51.344;6.550;2023-07-22T06:17:09;10.00;;;3.93;;
75739;SDS011;64357;51.344;6.550;2023-07-22T06:19:37;11.48;;;4.57;;
75739;SDS011;64357;51.344;6.550;2023-07-22T06:22:02;10.83;;;4.47;;
75739;SDS011;64357;51.344;6.550;2023-07-22T06:24:28;8.25;;;3.88;;
75739;SDS011;64357;51.344;6.550;2023-07-22T06:26:54;10.15;;;4.43;;
75739;SDS011;64357;51.344;6.550;2023-07-22T06:29:19;13.47;;;4.10;;
75739;SDS011;64357;51.344;6.550;2023-07-22T06:31:44;9.67;;;3.67;;
75739;SDS011;64357;51.344;6.550;2023-07-22T06:34:10;9.43;;;4.07;;
75739;SDS011;64357;51.344;6.550;2023-07-22T06:36:35;12.00;;;4.30;;
75739;SDS011;64357;51.344;6.550;2023-07-22T06:39:03;9.73;;;3.90;;
75739;SDS011;64357;51.344;6.550;2023-07-22T06:41:30;9.05;;;3.97;;
75739;SDS011;64357;51.344;6.550;2023-07-22T06:43:55;10.17;;;3.93;;
75739;SDS011;64357;51.344;6.550;2023-07-22T06:46:20;11.67;;;4.67;;
75739;SDS011;64357;51.344;6.550;2023-07-22T06:48:47;13.10;;;4.60;;
75739;SDS011;64357;51.344;6.550;2023-07-22T06:51:12;10.23;;;3.92;;
75739;SDS011;64357;51.344;6.550;2023-07-22T06:53:38;10.43;;;4.33;;
75739;SDS011;64357;51.344;6.550;2023-07-22T06:56:03;9.70;;;3.88;;
75739;SDS011;64357;51.344;6.550;2023-07-22T06:58:29;11.32;;;4.05;;
75739;SDS011;64357;51.344;6.550;2023-07-22T07:00:54;9.48;;;4.13;;
75739;SDS011;64357;51.344;6.550;2023-07-22T07:03:20;10.75;;;4.55;;
75739;SDS011;64357;51.344;6.550;2023-07-22T07:05:54;10.88;;;4.18;;
75739;SDS011;64357;51.344;6.550;2023-07-22T07:08:22;11.52;;;4.30;;
75739;SDS011;64357;51.344;6.550;2023-07-22T07:10:48;10.02;;;4.38;;
75739;SDS011;64357;51.344;6.550;2023-07-22T07:13:22;8.75;;;3.55;;
75739;SDS011;64357;51.344;6.550;2023-07-22T07:16:24;10.15;;;4.07;;
75739;SDS011;64357;51.344;6.550;2023-07-22T07:18:53;11.38;;;4.32;;
75739;SDS011;64357;51.344;6.550;2023-07-22T07:21:19;11.95;;;4.32;;
75739;SDS011;64357;51.344;6.550;2023-07-22T07:26:19;9.15;;;4.40;;
75739;SDS011;64357;51.344;6.550;2023-07-22T07:28:44;11.30;;;4.78;;
75739;SDS011;64357;51.344;6.550;2023-07-22T07:31:11;11.02;;;4.60;;
75739;SDS011;64357;51.344;6.550;2023-07-22T07:33:50;10.10;;;4.30;;
75739;SDS011;64357;51.344;6.550;2023-07-22T07:36:19;11.93;;;4.32;;
75739;SDS011;64357;51.344;6.550;2023-07-22T07:38:46;10.20;;;4.53;;
75739;SDS011;64357;51.344;6.550;2023-07-22T07:41:12;11.60;;;4.88;;
75739;SDS011;64357;51.344;6.550;2023-07-22T07:43:39;11.23;;;4.40;;
75739;SDS011;64357;51.344;6.550;2023-07-22T07:51:08;9.18;;;3.97;;
75739;SDS011;64357;51.344;6.550;2023-07-22T07:53:33;11.80;;;4.18;;
75739;SDS011;64357;51.344;6.550;2023-07-22T07:55:58;8.80;;;3.80;;
75739;SDS011;64357;51.344;6.550;2023-07-22T07:58:24;9.20;;;3.75;;
75739;SDS011;64357;51.344;6.550;2023-07-22T08:00:52;9.75;;;4.32;;
75739;SDS011;64357;51.344;6.550;2023-07-22T08:03:18;11.48;;;3.90;;
75739;SDS011;64357;51.344;6.550;2023-07-22T08:05:49;9.77;;;4.23;;
75739;SDS011;64357;51.344;6.550;2023-07-22T08:08:15;12.40;;;3.42;;
75739;SDS011;64357;51.344;6.550;2023-07-22T08:13:26;10.07;;;3.55;;
75739;SDS011;64357;51.344;6.550;2023-07-22T08:15:55;9.95;;;3.90;;
75739;SDS011;64357;51.344;6.550;2023-07-22T08:18:20;9.30;;;3.40;;
75739;SDS011;64357;51.344;6.550;2023-07-22T08:20:46;9.30;;;3.80;;
75739;SDS011;64357;51.344;6.550;2023-07-22T08:23:14;9.40;;;3.67;;
75739;SDS011;64357;51.344;6.550;2023-07-22T08:25:43;8.60;;;3.22;;
75739;SDS011;64357;51.344;6.550;2023-07-22T08:28:08;9.07;;;3.70;;
75739;SDS011;64357;51.344;6.550;2023-07-22T08:30:36;10.05;;;3.90;;
75739;SDS011;64357;51.344;6.550;2023-07-22T08:33:51;12.00;;;3.35;;
75739;SDS011;64357;51.344;6.550;2023-07-22T08:36:17;9.52;;;3.75;;
75739;SDS011;64357;51.344;6.550;2023-07-22T08:38:42;10.13;;;3.57;;
75739;SDS011;64357;51.344;6.550;2023-07-22T08:41:13;7.60;;;3.10;;
75739;SDS011;64357;51.344;6.550;2023-07-22T08:43:52;7.20;;;3.03;;
75739;SDS011;64357;51.344;6.550;2023-07-22T08:46:20;7.53;;;3.05;;
75739;SDS011;64357;51.344;6.550;2023-07-22T08:49:16;8.65;;;3.17;;
75739;SDS011;64357;51.344;6.550;2023-07-22T08:51:42;8.35;;;3.33;;
75739;SDS011;64357;51.344;6.550;2023-07-22T08:54:09;8.48;;;2.80;;
75739;SDS011;64357;51.344;6.550;2023-07-22T08:56:45;5.65;;;2.30;;
75739;SDS011;64357;51.344;6.550;2023-07-22T08:59:15;6.72;;;2.20;;
75739;SDS011;64357;51.344;6.550;2023-07-22T09:01:45;9.98;;;2.60;;
75739;SDS011;64357;51.344;6.550;2023-07-22T09:04:15;6.10;;;2.30;;
75739;SDS011;64357;51.344;6.550;2023-07-22T09:09:18;6.75;;;2.28;;
75739;SDS011;64357;51.344;6.550;2023-07-22T09:11:54;7.13;;;2.30;;
75739;SDS011;64357;51.344;6.550;2023-07-22T09:14:22;6.85;;;2.60;;
75739;SDS011;64357;51.344;6.550;2023-07-22T09:16:55;7.18;;;2.38;;
75739;SDS011;64357;51.344;6.550;2023-07-22T09:19:33;7.88;;;2.58;;
75739;SDS011;64357;51.344;6.550;2023-07-22T09:21:58;6.43;;;2.28;;
75739;SDS011;64357;51.344;6.550;2023-07-22T09:24:32;5.43;;;2.05;;
75739;SDS011;64357;51.344;6.550;2023-07-22T09:27:07;11.10;;;2.60;;
75739;SDS011;64357;51.344;6.550;2023-07-22T09:29:36;9.00;;;3.65;;
75739;SDS011;64357;51.344;6.550;2023-07-22T09:32:06;5.65;;;2.20;;
75739;SDS011;64357;51.344;6.550;2023-07-22T09:34:35;8.23;;;2.33;;
75739;SDS011;64357;51.344;6.550;2023-07-22T09:37:07;6.72;;;2.28;;
75739;SDS011;64357;51.344;6.550;2023-07-22T09:39:44;6.85;;;2.38;;
75739;SDS011;64357;51.344;6.550;2023-07-22T09:42:22;6.88;;;2.97;;
75739;SDS011;64357;51.344;6.550;2023-07-22T09:44:52;7.28;;;2.15;;
75739;SDS011;64357;51.344;6.550;2023-07-22T09:47:19;6.03;;;2.30;;
75739;SDS011;64357;51.344;6.550;2023-07-22T09:49:47;7.80;;;2.70;;
75739;SDS011;64357;51.344;6.550;2023-07-22T09:52:26;6.05;;;2.30;;
75739;SDS011;64357;51.344;6.550;2023-07-22T09:54:52;5.65;;;2.08;;
75739;SDS011;64357;51.344;6.550;2023-07-22T09:57:24;5.22;;;1.95;;
75739;SDS011;64357;51.344;6.550;2023-07-22T10:00:10;4.80;;;2.00;;
75739;SDS011;64357;51.344;6.550;2023-07-22T10:02:42;5.00;;;2.00;;
75739;SDS011;64357;51.344;6.550;2023-07-22T10:05:15;6.70;;;2.38;;
75739;SDS011;64357;51.344;6.550;2023-07-22T10:07:52;5.22;;;2.13;;
75739;SDS011;64357;51.344;6.550;2023-07-22T10:10:31;5.65;;;2.17;;
75739;SDS011;64357;51.344;6.550;2023-07-22T10:12:58;5.45;;;2.13;;
75739;SDS011;64357;51.344;6.550;2023-07-22T10:15:33;4.85;;;2.22;;
75739;SDS011;64357;51.344;6.550;2023-07-22T10:18:00;5.10;;;2.00;;
75739;SDS011;64357;51.344;6.550;2023-07-22T10:20:26;4.45;;;2.10;;
75739;SDS011;64357;51.344;6.550;2023-07-22T10:22:55;6.05;;;2.22;;
75739;SDS011;64357;51.344;6.550;2023-07-22T10:25:21;3.65;;;1.98;;
75739;SDS011;64357;51.344;6.550;2023-07-22T10:27:51;7.28;;;2.10;;
75739;SDS011;64357;51.344;6.550;2023-07-22T10:30:17;5.32;;;2.00;;
75739;SDS011;64357;51.344;6.550;2023-07-22T10:35:16;5.18;;;1.90;;
75739;SDS011;64357;51.344;6.550;2023-07-22T10:37:46;4.78;;;1.77;;
75739;SDS011;64357;51.344;6.550;2023-07-22T10:40:18;4.55;;;1.73;;
75739;SDS011;64357;51.344;6.550;2023-07-22T10:46:17;3.88;;;1.85;;
75739;SDS011;64357;51.344;6.550;2023-07-22T10:52:13;4.25;;;1.80;;
75739;SDS011;64357;51.344;6.550;2023-07-22T10:54:58;5.35;;;1.92;;
75739;SDS011;64357;51.344;6.550;2023-07-22T10:57:25;3.20;;;1.45;;
75739;SDS011;64357;51.344;6.550;2023-07-22T10:59:51;5.05;;;1.92;;
75739;SDS011;64357;51.344;6.550;2023-07-22T11:04:48;4.90;;;1.58;;
75739;SDS011;64357;51.344;6.550;2023-07-22T11:07:14;2.72;;;1.27;;
75739;SDS011;64357;51.344;6.550;2023-07-22T11:09:40;4.95;;;1.70;;
75739;SDS011;64357;51.344;6.550;2023-07-22T11:12:10;4.30;;;1.55;;
75739;SDS011;64357;51.344;6.550;2023-07-22T11:14:52;3.25;;;1.33;;
75739;SDS011;64357;51.344;6.550;2023-07-22T11:17:27;5.43;;;1.60;;
75739;SDS011;64357;51.344;6.550;2023-07-22T11:20:15;4.47;;;1.90;;
75739;SDS011;64357;51.344;6.550;2023-07-22T11:23:55;5.63;;;1.70;;
75739;SDS011;64357;51.344;6.550;2023-07-22T11:28:59;3.97;;;1.42;;
75739;SDS011;64357;51.344;6.550;2023-07-22T11:34:40;2.83;;;1.08;;
75739;SDS011;64357;51.344;6.550;2023-07-22T11:37:17;3.05;;;0.98;;
75739;SDS011;64357;51.344;6.550;2023-07-22T11:43:12;2.53;;;0.98;;
75739;SDS011;64357;51.344;6.550;2023-07-22T11:45:59;3.22;;;1.00;;
75739;SDS011;64357;51.344;6.550;2023-07-22T11:48:25;5.20;;;2.28;;
75739;SDS011;64357;51.344;6.550;2023-07-22T11:50:57;5.95;;;1.80;;
75739;SDS011;64357;51.344;6.550;2023-07-22T11:53:31;4.20;;;1.50;;
75739;SDS011;64357;51.344;6.550;2023-07-22T11:55:57;5.00;;;1.63;;
75739;SDS011;64357;51.344;6.550;2023-07-22T11:58:27;5.53;;;1.58;;
75739;SDS011;64357;51.344;6.550;2023-07-22T12:01:10;3.70;;;1.63;;
75739;SDS011;64357;51.344;6.550;2023-07-22T12:03:49;4.63;;;1.83;;
75739;SDS011;64357;51.344;6.550;2023-07-22T12:06:24;5.38;;;1.55;;
75739;SDS011;64357;51.344;6.550;2023-07-22T12:12:18;3.38;;;1.52;;
75739;SDS011;64357;51.344;6.550;2023-07-22T12:15:23;5.35;;;1.70;;
75739;SDS011;64357;51.344;6.550;2023-07-22T12:18:11;7.47;;;2.20;;
75739;SDS011;64357;51.344;6.550;2023-07-22T12:20:42;3.97;;;1.67;;
75739;SDS011;64357;51.344;6.550;2023-07-22T12:23:20;3.80;;;1.60;;
75739;SDS011;64357;51.344;6.550;2023-07-22T12:25:56;3.80;;;1.38;;
75739;SDS011;64357;51.344;6.550;2023-07-22T12:28:23;3.50;;;1.55;;
75739;SDS011;64357;51.344;6.550;2023-07-22T12:31:15;5.03;;;1.70;;
75739;SDS011;64357;51.344;6.550;2023-07-22T12:33:50;4.75;;;1.60;;
75739;SDS011;64357;51.344;6.550;2023-07-22T12:36:23;3.08;;;1.30;;
75739;SDS011;64357;51.344;6.550;2023-07-22T12:38:57;4.25;;;1.60;;
75739;SDS011;64357;51.344;6.550;2023-07-22T12:41:30;4.53;;;1.52;;
75739;SDS011;64357;51.344;6.550;2023-07-22T12:44:01;4.53;;;1.73;;
75739;SDS011;64357;51.344;6.550;2023-07-22T12:46:27;5.03;;;2.10;;
75739;SDS011;64357;51.344;6.550;2023-07-22T12:49:04;4.32;;;1.55;;
75739;SDS011;64357;51.344;6.550;2023-07-22T12:51:32;5.07;;;1.80;;
75739;SDS011;64357;51.344;6.550;2023-07-22T12:53:58;5.15;;;1.80;;
75739;SDS011;64357;51.344;6.550;2023-07-22T12:56:23;4.63;;;1.87;;
75739;SDS011;64357;51.344;6.550;2023-07-22T12:58:49;6.63;;;1.90;;
75739;SDS011;64357;51.344;6.550;2023-07-22T13:01:19;5.82;;;1.85;;
75739;SDS011;64357;51.344;6.550;2023-07-22T13:03:47;5.65;;;1.88;;
75739;SDS011;64357;51.344;6.550;2023-07-22T13:06:15;6.45;;;1.42;;
75739;SDS011;64357;51.344;6.550;2023-07-22T13:08:40;5.80;;;2.20;;
75739;SDS011;64357;51.344;6.550;2023-07-22T13:11:05;5.00;;;1.60;;
75739;SDS011;64357;51.344;6.550;2023-07-22T13:13:31;5.47;;;1.90;;
75739;SDS011;64357;51.344;6.550;2023-07-22T13:15:56;4.87;;;2.00;;
75739;SDS011;64357;51.344;6.550;2023-07-22T13:18:24;4.78;;;1.50;;
75739;SDS011;64357;51.344;6.550;2023-07-22T13:20:49;5.50;;;1.70;;
75739;SDS011;64357;51.344;6.550;2023-07-22T13:25:43;4.95;;;1.45;;
75739;SDS011;64357;51.344;6.550;2023-07-22T13:28:09;3.70;;;1.33;;
75739;SDS011;64357;51.344;6.550;2023-07-22T13:30:39;4.15;;;1.50;;
75739;SDS011;64357;51.344;6.550;2023-07-22T13:33:04;5.03;;;1.65;;
75739;SDS011;64357;51.344;6.550;2023-07-22T13:35:30;3.53;;;1.43;;
75739;SDS011;64357;51.344;6.550;2023-07-22T13:37:55;4.65;;;1.67;;
75739;SDS011;64357;51.344;6.550;2023-07-22T13:40:21;3.85;;;1.30;;
75739;SDS011;64357;51.344;6.550;2023-07-22T13:42:49;4.50;;;1.80;;
75739;SDS011;64357;51.344;6.550;2023-07-22T13:45:17;4.95;;;1.63;;
75739;SDS011;64357;51.344;6.550;2023-07-22T13:47:55;5.20;;;1.60;;
75739;SDS011;64357;51.344;6.550;2023-07-22T13:50:20;3.65;;;1.67;;
75739;SDS011;64357;51.344;6.550;2023-07-22T13:52:45;3.97;;;1.97;;
75739;SDS011;64357;51.344;6.550;2023-07-22T13:55:11;4.90;;;1.73;;
75739;SDS011;64357;51.344;6.550;2023-07-22T13:57:36;3.83;;;1.85;;
75739;SDS011;64357;51.344;6.550;2023-07-22T14:00:04;3.77;;;1.77;;
75739;SDS011;64357;51.344;6.550;2023-07-22T14:02:33;4.97;;;1.48;;
75739;SDS011;64357;51.344;6.550;2023-07-22T14:05:01;5.40;;;1.70;;
75739;SDS011;64357;51.344;6.550;2023-07-22T14:07:28;6.45;;;2.03;;
75739;SDS011;64357;51.344;6.550;2023-07-22T14:09:53;3.17;;;1.33;;
75739;SDS011;64357;51.344;6.550;2023-07-22T14:12:19;6.55;;;1.85;;
75739;SDS011;64357;51.344;6.550;2023-07-22T14:14:46;6.57;;;2.30;;
75739;SDS011;64357;51.344;6.550;2023-07-22T14:17:14;5.72;;;2.10;;
75739;SDS011;64357;51.344;6.550;2023-07-22T14:19:42;4.53;;;1.63;;
75739;SDS011;64357;51.344;6.550;2023-07-22T14:22:07;4.10;;;1.60;;
75739;SDS011;64357;51.344;6.550;2023-07-22T14:24:33;3.70;;;1.38;;
75739;SDS011;64357;51.344;6.550;2023-07-22T14:26:59;6.22;;;1.90;;
75739;SDS011;64357;51.344;6.550;2023-07-22T14:29:26;4.03;;;1.58;;
75739;SDS011;64357;51.344;6.550;2023-07-22T14:31:52;4.65;;;1.85;;
75739;SDS011;64357;51.344;6.550;2023-07-22T14:34:20;4.23;;;1.70;;
75739;SDS011;64357;51.344;6.550;2023-07-22T14:39:13;4.30;;;1.90;;
75739;SDS011;64357;51.344;6.550;2023-07-22T14:41:40;5.23;;;1.67;;
75739;SDS011;64357;51.344;6.550;2023-07-22T14:44:08;5.50;;;2.03;;
75739;SDS011;64357;51.344;6.550;2023-07-22T14:46:34;7.43;;;1.90;;
75739;SDS011;64357;51.344;6.550;2023-07-22T14:49:02;6.15;;;2.40;;
75739;SDS011;64357;51.344;6.550;2023-07-22T14:51:28;4.38;;;1.75;;
75739;SDS011;64357;51.344;6.550;2023-07-22T14:53:54;3.53;;;1.45;;
75739;SDS011;64357;51.344;6.550;2023-07-22T14:56:19;4.72;;;1.50;;
75739;SDS011;64357;51.344;6.550;2023-07-22T14:58:45;2.92;;;1.20;;
75739;SDS011;64357;51.344;6.550;2023-07-22T15:01:11;5.68;;;1.38;;
75739;SDS011;64357;51.344;6.550;2023-07-22T15:03:39;3.13;;;1.30;;
75739;SDS011;64357;51.344;6.550;2023-07-22T15:06:05;3.70;;;1.17;;
75739;SDS011;64357;51.344;6.550;2023-07-22T15:08:33;3.65;;;1.33;;
75739;SDS011;64357;51.344;6.550;2023-07-22T15:11:01;6.13;;;1.83;;
75739;SDS011;64357;51.344;6.550;2023-07-22T15:13:27;4.95;;;1.83;;
75739;SDS011;64357;51.344;6.550;2023-07-22T15:15:53;2.88;;;1.08;;
75739;SDS011;64357;51.344;6.550;2023-07-22T15:18:21;2.15;;;0.80;;
75739;SDS011;64357;51.344;6.550;2023-07-22T15:20:47;3.60;;;1.30;;
75739;SDS011;64357;51.344;6.550;2023-07-22T15:23:16;3.65;;;1.45;;
75739;SDS011;64357;51.344;6.550;2023-07-22T15:25:42;2.83;;;1.13;;
75739;SDS011;64357;51.344;6.550;2023-07-22T15:28:08;3.33;;;1.20;;
75739;SDS011;64357;51.344;6.550;2023-07-22T15:30:33;4.95;;;1.50;;
75739;SDS011;64357;51.344;6.550;2023-07-22T15:32:59;4.75;;;1.20;;
75739;SDS011;64357;51.344;6.550;2023-07-22T15:35:24;3.38;;;1.20;;